createdAt,value
2018-06-14T00:00:01.691Z,73.80
2018-06-14T00:02:48.173Z,72.80
2018-06-14T00:05:35.477Z,74.40
2018-06-14T00:13:55.377Z,73.90
2018-06-14T00:19:19.389Z,75.50
2018-06-14T00:22:03.773Z,75.90
2018-06-14T00:24:50.260Z,74.40
2018-06-14T00:27:29.417Z,74.00
2018-06-14T00:30:11.904Z,73.60
2018-06-14T00:32:45.128Z,73.70
2018-06-14T00:35:14.921Z,73.10
2018-06-14T00:37:48.367Z,72.60
2018-06-14T00:40:31.652Z,75.00
2018-06-14T00:45:48.026Z,74.10
2018-06-14T00:51:09.189Z,73.40
2018-06-14T00:54:00.250Z,73.90
2018-06-14T00:56:50.349Z,73.70
2018-06-14T00:59:24.081Z,73.30
2018-06-14T01:02:01.305Z,73.80
2018-06-14T01:04:38.482Z,73.10
2018-06-14T01:07:22.950Z,73.00
2018-06-14T01:10:01.702Z,73.10
2018-06-14T01:12:38.889Z,73.50
2018-06-14T01:15:21.131Z,73.10
2018-06-14T01:18:02.053Z,73.00
2018-06-14T01:20:45.111Z,72.90
2018-06-14T01:23:32.295Z,74.00
2018-06-14T01:26:10.552Z,74.00
2018-06-14T01:28:54.277Z,72.90
2018-06-14T01:31:29.891Z,72.70
2018-06-14T01:33:59.961Z,72.00
2018-06-14T01:36:29.955Z,72.20
2018-06-14T01:39:00.074Z,72.30
2018-06-14T01:41:29.855Z,72.80
2018-06-14T01:43:59.871Z,73.60
2018-06-14T01:46:29.900Z,73.50
2018-06-14T01:49:00.010Z,73.10
2018-06-14T01:51:29.993Z,74.20
2018-06-14T01:54:00.004Z,74.20
2018-06-14T01:56:30.165Z,74.80
2018-06-14T01:59:00.077Z,74.40
2018-06-14T02:01:30.343Z,73.60
2018-06-14T02:04:00.227Z,73.30
2018-06-14T02:06:30.295Z,72.50
2018-06-14T02:09:00.282Z,71.70
2018-06-14T02:11:30.313Z,72.50
2018-06-14T02:14:00.282Z,72.70
2018-06-14T02:16:30.932Z,72.80
2018-06-14T02:19:00.572Z,73.80
2018-06-14T02:21:30.820Z,73.90
2018-06-14T02:24:00.537Z,73.90
2018-06-14T02:26:30.480Z,72.70
2018-06-14T02:29:00.445Z,72.40
2018-06-14T02:31:30.737Z,73.10
2018-06-14T02:34:00.511Z,73.30
2018-06-14T02:36:30.655Z,73.00
2018-06-14T02:39:00.524Z,72.20
2018-06-14T02:41:30.640Z,72.60
2018-06-14T02:44:00.706Z,72.40
2018-06-14T02:46:30.573Z,72.60
2018-06-14T02:49:00.632Z,71.50
2018-06-14T02:51:30.713Z,71.70
2018-06-14T02:54:00.663Z,71.30
2018-06-14T02:56:30.704Z,72.30
2018-06-14T02:59:00.653Z,72.30
2018-06-14T03:01:30.671Z,71.90
2018-06-14T03:04:00.784Z,70.80
2018-06-14T03:06:30.736Z,72.20
2018-06-14T03:09:00.870Z,70.20
2018-06-14T03:11:30.724Z,70.70
2018-06-14T03:14:00.855Z,72.70
2018-06-14T03:16:30.908Z,71.50
2018-06-14T03:19:00.922Z,71.10
2018-06-14T03:21:30.827Z,70.00
2018-06-14T03:24:00.816Z,70.80
2018-06-14T03:26:30.845Z,72.00
2018-06-14T03:29:00.901Z,72.40
2018-06-14T03:31:31.124Z,71.10
2018-06-14T03:34:01.170Z,71.10
2018-06-14T03:36:36.770Z,71.60
2018-06-14T03:39:08.390Z,71.40
2018-06-14T03:41:38.011Z,71.30
2018-06-14T03:44:07.660Z,72.10
2018-06-14T03:46:37.366Z,72.20
2018-06-14T03:49:06.992Z,71.30
2018-06-14T03:54:06.027Z,71.30
2018-06-14T03:56:35.663Z,70.50
2018-06-14T03:59:05.296Z,71.30
2018-06-14T04:01:35.013Z,70.80
2018-06-14T04:04:04.705Z,71.00
2018-06-14T04:06:34.348Z,71.40
2018-06-14T04:09:04.279Z,70.90
2018-06-14T04:11:33.949Z,71.30
2018-06-14T04:14:03.726Z,71.10
2018-06-14T04:16:33.789Z,71.40
2018-06-14T04:19:03.556Z,71.90
2018-06-14T04:21:33.385Z,71.70
2018-06-14T04:24:03.217Z,72.90
2018-06-14T04:26:32.815Z,73.40
2018-06-14T04:29:02.536Z,71.80
2018-06-14T04:31:32.224Z,72.60
2018-06-14T04:34:02.060Z,72.20
2018-06-14T04:36:31.953Z,71.70
2018-06-14T04:39:02.173Z,70.20
2018-06-14T04:41:34.070Z,72.20
2018-06-14T04:44:04.619Z,72.70
2018-06-14T04:46:35.644Z,73.50
2018-06-14T04:49:06.262Z,71.60
2018-06-14T04:51:45.659Z,71.10
2018-06-14T04:54:16.351Z,69.40
2018-06-14T04:56:47.573Z,70.50
2018-06-14T04:59:18.601Z,71.10
2018-06-14T05:01:48.486Z,71.10
2018-06-14T05:04:19.296Z,71.00
2018-06-14T05:06:49.736Z,70.20
2018-06-14T05:09:20.951Z,71.40
2018-06-14T05:11:52.798Z,69.60
2018-06-14T05:14:23.894Z,70.50
2018-06-14T05:19:24.015Z,71.90
2018-06-14T05:22:08.521Z,71.50
2018-06-14T05:27:09.410Z,71.60
2018-06-14T05:29:40.101Z,70.10
2018-06-14T05:34:39.433Z,69.80
2018-06-14T05:37:09.637Z,71.00
2018-06-14T05:39:40.697Z,69.40
2018-06-14T05:42:11.166Z,69.40
2018-06-14T05:44:41.254Z,70.40
2018-06-14T05:47:10.849Z,70.70
2018-06-14T05:49:44.584Z,71.30
2018-06-14T05:52:14.412Z,68.80
2018-06-14T05:54:44.015Z,69.10
2018-06-14T05:57:13.749Z,67.40
2018-06-14T06:02:12.575Z,67.60
2018-06-14T06:04:46.019Z,64.50
2018-06-14T06:07:15.745Z,66.30
2018-06-14T06:09:45.447Z,65.80
2018-06-14T06:12:15.125Z,66.10
2018-06-14T06:14:52.276Z,67.20
2018-06-14T06:19:56.863Z,67.70
2018-06-14T06:22:26.689Z,63.40
2018-06-14T06:24:56.507Z,65.60
2018-06-14T06:27:26.209Z,63.40
2018-06-14T06:29:57.126Z,64.90
2018-06-14T06:32:28.120Z,66.20
2018-06-14T06:34:58.835Z,60.30
2018-06-14T06:37:34.157Z,58.50
2018-06-14T06:40:07.476Z,61.90
2018-06-14T06:45:13.617Z,57.10
2018-06-14T06:47:46.090Z,59.80
2018-06-14T06:55:23.701Z,57.50
2018-06-14T06:57:55.827Z,60.10
2018-06-14T07:03:06.025Z,58.00
2018-06-14T07:08:05.095Z,60.10
2018-06-14T07:10:34.808Z,58.50
2018-06-14T07:13:04.539Z,56.80
2018-06-14T07:15:34.347Z,58.60
2018-06-14T07:18:04.118Z,58.90
2018-06-14T07:20:33.779Z,56.40
2018-06-14T07:23:03.436Z,55.90
2018-06-14T07:25:33.352Z,57.20
2018-06-14T07:28:03.740Z,58.70
2018-06-14T07:30:33.555Z,59.70
2018-06-14T07:33:03.823Z,56.10
2018-06-14T07:35:33.616Z,58.80
2018-06-14T07:38:03.286Z,57.80
2018-06-14T07:40:32.929Z,57.60
2018-06-14T07:43:02.777Z,57.80
2018-06-14T07:45:32.646Z,56.70
2018-06-14T07:48:02.373Z,55.80
2018-06-14T07:50:32.309Z,57.60
2018-06-14T07:53:02.130Z,56.70
2018-06-14T07:55:32.255Z,55.10
2018-06-14T07:58:01.929Z,56.00
2018-06-14T08:00:32.288Z,56.30
2018-06-14T08:03:03.227Z,55.20
2018-06-14T08:05:33.400Z,55.90
2018-06-14T08:08:04.887Z,54.70
2018-06-14T08:10:34.597Z,56.80
2018-06-14T08:13:05.216Z,56.60
2018-06-14T08:15:35.078Z,55.10
2018-06-14T08:18:04.688Z,56.40
2018-06-14T08:20:34.413Z,55.40
2018-06-14T08:23:04.157Z,54.80
2018-06-14T08:25:34.030Z,53.20
2018-06-14T08:28:03.720Z,55.00
2018-06-14T08:30:33.617Z,54.30
2018-06-14T08:33:03.355Z,53.00
2018-06-14T08:35:33.223Z,54.60
2018-06-14T08:40:32.355Z,53.20
2018-06-14T08:43:02.129Z,54.40
2018-06-14T08:45:32.535Z,52.20
2018-06-14T08:48:02.654Z,53.00
2018-06-14T08:50:33.033Z,53.00
2018-06-14T08:53:03.018Z,55.60
2018-06-14T08:55:32.730Z,54.30
2018-06-14T08:58:02.491Z,52.30
2018-06-14T09:00:32.177Z,51.40
2018-06-14T09:05:31.752Z,52.10
2018-06-14T09:08:01.562Z,51.70
2018-06-14T09:10:31.277Z,54.30
2018-06-14T09:13:02.268Z,51.40
2018-06-14T09:15:31.962Z,51.40
2018-06-14T09:18:07.397Z,53.10
2018-06-14T09:23:06.404Z,51.30
2018-06-14T09:25:36.432Z,52.60
2018-06-14T09:28:06.355Z,53.40
2018-06-14T09:30:40.318Z,53.30
2018-06-14T09:33:10.013Z,51.00
2018-06-14T09:35:39.759Z,50.70
2018-06-14T09:40:45.899Z,49.80
2018-06-14T09:43:15.619Z,50.10
2018-06-14T09:45:47.437Z,49.90
2018-06-14T09:48:17.109Z,53.80
2018-06-14T09:53:30.303Z,48.30
2018-06-14T09:56:00.876Z,49.00
2018-06-14T10:01:05.869Z,50.70
2018-06-14T10:06:05.074Z,49.10
2018-06-14T10:08:34.869Z,51.30
2018-06-14T10:11:06.390Z,48.50
2018-06-14T10:13:36.126Z,48.50
2018-06-14T10:16:08.316Z,49.50
2018-06-14T10:18:39.168Z,50.10
2018-06-14T10:21:08.867Z,50.50
2018-06-14T10:23:39.089Z,48.50
2018-06-14T10:26:09.090Z,49.40
2018-06-14T10:28:38.844Z,48.80
2018-06-14T10:31:08.637Z,49.90
2018-06-14T10:33:39.128Z,50.70
2018-06-14T10:36:09.441Z,51.20
2018-06-14T10:38:39.229Z,51.60
2018-06-14T10:41:10.346Z,48.30
2018-06-14T10:43:40.081Z,50.00
2018-06-14T10:46:09.859Z,51.00
2018-06-14T10:48:41.014Z,50.20
2018-06-14T10:51:10.750Z,49.40
2018-06-14T10:53:40.706Z,51.20
2018-06-14T10:58:46.204Z,49.10
2018-06-14T11:03:45.704Z,49.70
2018-06-14T11:06:15.481Z,50.40
2018-06-14T11:08:45.146Z,49.80
2018-06-14T11:11:14.894Z,50.30
2018-06-14T11:13:49.991Z,48.20
2018-06-14T11:16:20.023Z,51.40
2018-06-14T11:18:50.300Z,48.90
2018-06-14T11:21:20.173Z,49.30
2018-06-14T11:26:19.870Z,49.70
2018-06-14T11:29:00.155Z,49.80
2018-06-14T11:34:26.250Z,48.90
2018-06-14T11:37:08.434Z,52.20
2018-06-14T11:39:48.375Z,51.00
2018-06-14T11:42:30.671Z,50.10
2018-06-14T11:45:10.120Z,50.50
2018-06-14T11:47:51.678Z,50.40
2018-06-14T11:50:41.379Z,49.70
2018-06-14T11:53:28.096Z,50.50
2018-06-14T11:56:14.128Z,49.20
2018-06-14T12:01:39.223Z,48.50
2018-06-14T12:04:13.173Z,47.30
2018-06-14T12:06:47.472Z,48.00
2018-06-14T12:09:37.456Z,50.50
2018-06-14T12:15:14.318Z,48.30
2018-06-14T12:17:52.321Z,48.00
2018-06-14T12:20:38.456Z,50.10
2018-06-14T12:23:19.561Z,47.80
2018-06-14T12:25:57.870Z,49.30
2018-06-14T12:28:36.380Z,48.00
2018-06-14T12:31:21.093Z,49.90
2018-06-14T12:34:01.541Z,49.90
2018-06-14T12:36:39.774Z,50.40
2018-06-14T12:39:26.471Z,50.60
2018-06-14T12:44:43.866Z,51.30
2018-06-14T12:47:22.085Z,49.90
2018-06-14T12:50:01.646Z,49.40
2018-06-14T12:52:44.363Z,49.50
2018-06-14T12:55:23.578Z,48.70
2018-06-14T12:58:03.103Z,48.00
2018-06-14T13:00:45.941Z,50.20
2018-06-14T13:06:10.482Z,49.40
2018-06-14T13:08:50.128Z,49.70
2018-06-14T13:11:27.363Z,48.80
2018-06-14T13:16:52.713Z,48.50
2018-06-14T13:19:29.383Z,48.20
2018-06-14T13:22:08.776Z,48.90
2018-06-14T13:24:45.734Z,49.40
2018-06-14T13:27:25.513Z,47.80
2018-06-14T13:30:06.246Z,49.20
2018-06-14T13:35:32.027Z,50.30
2018-06-14T13:38:11.943Z,50.50
2018-06-14T13:40:46.741Z,47.70
2018-06-14T13:43:27.266Z,48.40
2018-06-14T13:46:06.637Z,49.60
2018-06-14T13:48:49.323Z,51.00
2018-06-14T13:51:29.478Z,49.30
2018-06-14T13:54:03.240Z,48.10
2018-06-14T13:59:29.052Z,49.80
2018-06-14T14:07:38.935Z,47.20
2018-06-14T14:10:22.050Z,46.90
2018-06-14T14:13:00.467Z,48.40
2018-06-14T14:15:40.660Z,47.30
2018-06-14T14:18:20.672Z,48.70
2018-06-14T14:20:59.114Z,47.30
2018-06-14T14:23:35.567Z,47.50
2018-06-14T14:26:14.782Z,48.80
2018-06-14T14:28:50.924Z,48.00
2018-06-14T14:31:30.884Z,48.10
2018-06-14T14:34:17.828Z,47.10
2018-06-14T14:37:01.044Z,46.30
2018-06-14T14:39:37.394Z,47.80
2018-06-14T14:42:16.513Z,45.60
2018-06-14T14:44:53.314Z,47.20
2018-06-14T14:47:28.368Z,47.20
2018-06-14T14:50:14.497Z,45.80
2018-06-14T14:52:57.075Z,47.30
2018-06-14T14:55:33.189Z,47.50
2018-06-14T15:01:11.457Z,47.60
2018-06-14T15:03:54.123Z,45.80
2018-06-14T15:06:35.483Z,45.00
2018-06-14T15:09:26.759Z,45.00
2018-06-14T15:12:08.966Z,46.00
2018-06-14T15:14:43.628Z,47.00
2018-06-14T15:17:23.475Z,45.80
2018-06-14T15:20:05.348Z,47.70
2018-06-14T15:22:43.830Z,46.00
2018-06-14T15:25:28.781Z,43.30
2018-06-14T15:33:38.043Z,44.90
2018-06-14T15:36:16.537Z,46.10
2018-06-14T15:38:54.334Z,44.90
2018-06-14T15:44:15.679Z,44.60
2018-06-14T15:46:54.580Z,45.30
2018-06-14T15:49:34.600Z,44.90
2018-06-14T15:52:25.657Z,44.20
2018-06-14T15:55:16.472Z,45.20
2018-06-14T16:00:41.088Z,45.50
2018-06-14T16:03:20.706Z,45.00
2018-06-14T16:05:57.292Z,43.70
2018-06-14T16:08:30.959Z,44.40
2018-06-14T16:11:04.883Z,44.60
2018-06-14T16:13:39.575Z,45.80
2018-06-14T16:16:14.642Z,48.00
2018-06-14T16:18:54.871Z,45.00
2018-06-14T16:21:36.010Z,46.30
2018-06-14T16:24:25.482Z,45.40
2018-06-14T16:27:10.606Z,46.10
2018-06-14T16:29:54.013Z,44.90
2018-06-14T16:32:40.484Z,45.20
2018-06-14T16:35:17.822Z,47.40
2018-06-14T16:38:02.649Z,45.60
2018-06-14T16:40:40.268Z,48.10
2018-06-14T16:54:28.921Z,45.50
2018-06-14T16:57:13.763Z,47.90
2018-06-14T17:00:02.219Z,46.90
2018-06-14T17:02:42.704Z,46.50
2018-06-14T17:05:20.137Z,47.60
2018-06-14T17:08:12.779Z,45.80
2018-06-14T17:13:48.579Z,45.20
2018-06-14T17:16:38.523Z,45.50
2018-06-14T17:19:23.440Z,46.00
2018-06-14T17:24:56.684Z,45.50
2018-06-14T17:27:36.406Z,46.80
2018-06-14T17:30:15.471Z,46.60
2018-06-14T17:35:34.715Z,45.70
2018-06-14T17:38:15.482Z,45.90
2018-06-14T17:40:53.697Z,45.70
2018-06-14T17:43:33.582Z,47.20
2018-06-14T17:46:11.078Z,46.30
2018-06-14T17:51:51.631Z,47.10
2018-06-14T18:00:17.317Z,47.30
2018-06-14T18:03:05.005Z,47.20
2018-06-14T18:05:38.966Z,46.30
2018-06-14T18:08:19.848Z,46.30
2018-06-14T18:13:56.813Z,47.10
2018-06-14T18:16:41.859Z,45.00
2018-06-14T18:22:18.180Z,45.70
2018-06-14T18:25:03.126Z,45.80
2018-06-14T18:27:39.689Z,45.00
2018-06-14T18:30:33.240Z,45.40
2018-06-14T18:33:13.206Z,46.80
2018-06-14T18:35:55.653Z,46.00
2018-06-14T18:38:40.649Z,45.80
2018-06-14T18:44:24.732Z,46.30
2018-06-14T18:49:55.461Z,46.50
2018-06-14T18:52:30.506Z,46.60
2018-06-14T18:55:23.354Z,45.40
2018-06-14T18:58:07.217Z,46.60
2018-06-14T19:00:51.195Z,47.50
2018-06-14T19:03:37.058Z,45.80
2018-06-14T19:06:13.442Z,46.20
2018-06-14T19:08:57.027Z,45.40
2018-06-14T19:11:41.100Z,47.10
2018-06-14T19:20:01.473Z,47.30
2018-06-14T19:25:36.076Z,44.80
2018-06-14T19:28:14.123Z,45.70
2018-06-14T19:30:50.219Z,46.20
2018-06-14T19:33:34.957Z,46.00
2018-06-14T19:36:22.912Z,46.40
2018-06-14T19:41:53.373Z,46.40
2018-06-14T19:44:42.300Z,47.50
2018-06-14T19:50:21.202Z,45.30
2018-06-14T19:52:55.549Z,47.50
2018-06-14T19:58:31.561Z,47.10
2018-06-14T20:01:11.037Z,46.00
2018-06-14T20:06:29.352Z,47.50
2018-06-14T20:09:12.503Z,48.30
2018-06-14T20:20:26.990Z,46.70
2018-06-14T20:23:05.095Z,46.30
2018-06-14T20:25:37.152Z,47.30
2018-06-14T20:28:10.531Z,46.60
2018-06-14T20:30:51.492Z,48.30
2018-06-14T20:33:29.934Z,46.20
2018-06-14T20:36:14.445Z,47.10
2018-06-14T20:38:55.836Z,47.80
2018-06-14T20:41:35.412Z,49.10
2018-06-14T20:47:02.447Z,48.80
2018-06-14T20:52:33.809Z,49.80
2018-06-14T20:55:22.507Z,49.00
2018-06-14T20:58:02.693Z,48.20
2018-06-14T21:00:49.108Z,50.70
2018-06-14T21:06:12.422Z,49.50
2018-06-14T21:08:52.613Z,49.50
2018-06-14T21:11:30.156Z,49.00
2018-06-14T21:14:08.097Z,48.00
2018-06-14T21:19:38.920Z,48.30
2018-06-14T21:22:26.536Z,47.50
2018-06-14T21:33:18.693Z,49.90
2018-06-14T21:36:04.981Z,49.90
2018-06-14T21:44:27.408Z,48.60
2018-06-14T21:47:09.518Z,48.80
2018-06-14T21:49:53.664Z,48.10
2018-06-14T21:55:28.401Z,49.30
2018-06-14T21:58:06.446Z,48.90
2018-06-14T22:03:53.950Z,47.70
2018-06-14T22:06:39.280Z,49.00
2018-06-14T22:12:17.840Z,49.50
2018-06-14T22:14:57.878Z,49.10
2018-06-14T22:17:43.802Z,48.30
2018-06-14T22:20:31.210Z,50.50
2018-06-14T22:23:26.163Z,51.30
2018-06-14T22:26:07.365Z,49.20
2018-06-14T22:28:56.535Z,48.40
2018-06-14T22:37:22.256Z,48.90
2018-06-14T22:40:07.368Z,48.80
2018-06-14T22:45:37.489Z,50.00
2018-06-14T22:52:02.250Z,48.90
2018-06-14T23:03:50.976Z,47.30
2018-06-14T23:10:32.626Z,47.90
2018-06-14T23:13:19.444Z,48.70
2018-06-14T23:18:50.817Z,47.80
2018-06-14T23:21:35.826Z,47.10
2018-06-14T23:24:16.288Z,47.30
2018-06-14T23:26:56.691Z,47.30
2018-06-14T23:29:41.918Z,48.40
2018-06-14T23:32:32.255Z,47.60
2018-06-14T23:38:13.925Z,47.60
2018-06-14T23:41:05.759Z,48.00
2018-06-14T23:43:48.717Z,48.20
2018-06-14T23:46:32.000Z,48.00
2018-06-14T23:49:20.076Z,48.50
2018-06-14T23:52:04.254Z,48.20
2018-06-14T23:54:45.525Z,47.40
2018-06-14T23:57:30.203Z,47.40
